Time;durP1;ratioP1;P1;durP2;ratioP2;P2;SDS_P1;SDS_P2;PMS_P1;PMS_P2;Temp;Humidity;BMP_temperature;BMP_pressure;BME280_temperature;BME280_humidity;BME280_pressure;Samples;Min_cycle;Max_cycle;Signal;HPM_P1;HPM_P2
2021/09/03 00:02:10;;;;;;;5.50;5.00;;;10.70;99.90;;;;;;6154034;23;20831;-63
2021/09/03 00:04:36;;;;;;;5.43;4.93;;;10.70;99.90;;;;;;6154113;23;20173;-60
2021/09/03 00:07:02;;;;;;;5.60;5.10;;;10.70;99.90;;;;;;6154021;23;20165;-62
2021/09/03 00:09:27;;;;;;;6.00;5.50;;;10.60;99.90;;;;;;6153358;23;20157;-63
2021/09/03 00:11:53;;;;;;;5.40;4.87;;;10.60;99.90;;;;;;6154069;23;20405;-63
2021/09/03 00:14:18;;;;;;;5.67;5.17;;;10.60;99.90;;;;;;6153855;23;20149;-63
2021/09/03 00:16:44;;;;;;;5.90;5.40;;;10.50;99.90;;;;;;6153880;23;20176;-63
2021/09/03 00:19:10;;;;;;;6.07;5.50;;;10.60;99.90;;;;;;6153585;23;20259;-63
2021/09/03 00:21:35;;;;;;;5.90;4.90;;;10.50;99.90;;;;;;6153877;23;20146;-63
2021/09/03 00:24:01;;;;;;;7.40;6.70;;;10.50;99.90;;;;;;6153960;23;20153;-63
2021/09/03 00:26:26;;;;;;;5.63;5.13;;;10.40;99.90;;;;;;6153831;23;20165;-64
2021/09/03 00:28:52;;;;;;;6.83;6.30;;;10.40;99.90;;;;;;6153449;23;20161;-63
2021/09/03 00:31:17;;;;;;;5.73;5.00;;;10.50;99.90;;;;;;6153904;23;20149;-63
2021/09/03 00:33:43;;;;;;;5.47;4.97;;;10.40;99.90;;;;;;6153617;23;20145;-63
2021/09/03 00:36:09;;;;;;;4.23;3.90;;;10.40;99.90;;;;;;6154056;23;20418;-62
2021/09/03 00:38:34;;;;;;;9.77;4.83;;;10.40;99.90;;;;;;6153258;23;20168;-64
2021/09/03 00:41:00;;;;;;;5.97;4.00;;;10.30;99.90;;;;;;6154026;23;20208;-62
2021/09/03 00:43:29;;;;;;;5.93;5.10;;;10.30;99.90;;;;;;6153643;23;20224;-63
2021/09/03 00:45:55;;;;;;;5.50;5.00;;;10.30;99.90;;;;;;6153901;23;20161;-63
2021/09/03 00:48:21;;;;;;;5.30;4.53;;;10.30;99.90;;;;;;6153479;23;20395;-63
2021/09/03 00:50:47;;;;;;;5.03;4.63;;;10.30;99.90;;;;;;6153802;23;20377;-63
2021/09/03 00:53:13;;;;;;;5.83;5.23;;;10.30;99.90;;;;;;6153819;23;20153;-63
2021/09/03 00:55:38;;;;;;;6.43;5.40;;;10.30;99.90;;;;;;6153904;23;20158;-63
2021/09/03 00:58:04;;;;;;;5.70;5.20;;;10.30;99.90;;;;;;6153439;23;20475;-63
2021/09/03 01:00:29;;;;;;;5.40;4.70;;;10.30;99.90;;;;;;6154223;23;20181;-63
2021/09/03 01:02:55;;;;;;;5.20;4.70;;;10.30;99.90;;;;;;6154137;23;20153;-63
2021/09/03 01:05:23;;;;;;;4.70;4.40;;;10.30;99.90;;;;;;6153979;23;20600;-63
2021/09/03 01:07:49;;;;;;;4.70;4.30;;;10.30;99.90;;;;;;6153698;23;20171;-63
2021/09/03 01:10:18;;;;;;;6.57;4.27;;;10.20;99.90;;;;;;6153577;23;20432;-63
2021/09/03 01:12:44;;;;;;;5.10;4.60;;;10.20;99.90;;;;;;6154045;23;20440;-63
2021/09/03 01:15:10;;;;;;;4.60;4.30;;;10.10;99.90;;;;;;6153865;23;20373;-63
2021/09/03 01:17:37;;;;;;;5.23;4.73;;;10.20;99.90;;;;;;6153862;23;20200;-63
2021/09/03 01:20:03;;;;;;;4.60;4.20;;;10.20;99.90;;;;;;6154046;23;20424;-63
2021/09/03 01:22:29;;;;;;;5.47;4.97;;;10.20;99.90;;;;;;6155752;23;20361;-63
2021/09/03 01:24:54;;;;;;;5.67;5.17;;;10.20;99.90;;;;;;6155440;23;20375;-63
2021/09/03 01:27:20;;;;;;;6.70;4.83;;;10.10;99.90;;;;;;6155446;23;20256;-63
2021/09/03 01:29:46;;;;;;;4.87;4.30;;;10.10;99.90;;;;;;6155222;23;20133;-63
2021/09/03 01:32:11;;;;;;;5.73;5.13;;;10.20;99.90;;;;;;6155668;23;20591;-63
2021/09/03 01:34:37;;;;;;;5.33;4.90;;;10.10;99.90;;;;;;6155514;23;20157;-63
2021/09/03 01:37:03;;;;;;;5.73;4.93;;;10.10;99.90;;;;;;6155881;23;20204;-63
2021/09/03 01:39:28;;;;;;;5.87;5.30;;;10.10;99.90;;;;;;6154954;23;20165;-63
2021/09/03 01:41:54;;;;;;;7.10;5.63;;;10.00;99.90;;;;;;6155507;23;20216;-63
2021/09/03 01:44:19;;;;;;;5.93;5.43;;;10.00;99.90;;;;;;6155235;23;20145;-63
2021/09/03 01:46:45;;;;;;;8.07;6.97;;;10.00;99.90;;;;;;6155490;23;20161;-63
2021/09/03 01:49:11;;;;;;;6.63;5.60;;;10.00;99.90;;;;;;6155001;23;20154;-63
2021/09/03 01:51:36;;;;;;;6.97;5.83;;;10.00;99.90;;;;;;6155460;23;20153;-63
2021/09/03 01:54:02;;;;;;;5.63;5.17;;;9.90;99.90;;;;;;6155255;23;20279;-63
2021/09/03 01:56:27;;;;;;;6.50;5.67;;;9.90;99.90;;;;;;6155269;23;20176;-63
2021/09/03 01:58:53;;;;;;;6.20;5.70;;;9.90;99.90;;;;;;6154803;23;20177;-63
2021/09/03 02:01:18;;;;;;;6.90;5.53;;;9.90;99.90;;;;;;6155345;23;20141;-63
2021/09/03 02:03:44;;;;;;;5.73;5.20;;;9.90;99.90;;;;;;6155124;23;20141;-63
2021/09/03 02:06:09;;;;;;;5.67;4.90;;;9.90;99.90;;;;;;6155298;23;20738;-63
2021/09/03 02:08:35;;;;;;;7.17;6.00;;;9.90;99.90;;;;;;6154821;23;20486;-63
2021/09/03 02:11:01;;;;;;;7.33;6.63;;;9.90;99.90;;;;;;6155229;23;20149;-63
2021/09/03 02:13:26;;;;;;;7.70;6.90;;;9.90;99.90;;;;;;6155080;23;20636;-63
2021/09/03 02:15:52;;;;;;;8.80;8.00;;;9.90;99.90;;;;;;6155179;23;20168;-63
2021/09/03 02:18:17;;;;;;;6.47;5.73;;;9.80;99.90;;;;;;6154896;23;20145;-63
2021/09/03 02:20:43;;;;;;;7.07;6.37;;;9.80;99.90;;;;;;6155041;23;20616;-63
2021/09/03 02:23:09;;;;;;;8.83;6.23;;;9.80;99.90;;;;;;6155051;23;20491;-63
2021/09/03 02:25:35;;;;;;;6.50;5.77;;;9.80;99.90;;;;;;6154988;23;20373;-63
2021/09/03 02:28:00;;;;;;;6.30;5.70;;;9.80;99.90;;;;;;6154619;23;20277;-63
2021/09/03 02:30:26;;;;;;;7.07;6.23;;;9.70;99.90;;;;;;6155031;23;20172;-64
2021/09/03 02:32:52;;;;;;;9.00;6.70;;;9.70;99.90;;;;;;6154663;23;20588;-64
2021/09/03 02:35:17;;;;;;;7.20;6.50;;;9.70;99.90;;;;;;6155036;23;20195;-64
2021/09/03 02:37:43;;;;;;;7.17;5.80;;;9.70;99.90;;;;;;6154959;23;20165;-64
2021/09/03 02:40:09;;;;;;;6.10;5.50;;;9.70;99.90;;;;;;6154418;23;20176;-64
2021/09/03 02:42:35;;;;;;;9.37;6.30;;;9.70;99.90;;;;;;6154855;23;20381;-64
2021/09/03 02:45:01;;;;;;;6.97;6.27;;;9.70;99.90;;;;;;6154943;23;20835;-64
2021/09/03 02:47:26;;;;;;;7.17;6.50;;;9.70;99.90;;;;;;6154851;23;20803;-64
2021/09/03 02:49:52;;;;;;;6.37;5.40;;;9.70;99.90;;;;;;6154466;23;20599;-64
2021/09/03 02:52:18;;;;;;;9.67;6.23;;;9.80;99.90;;;;;;6154944;23;20240;-62
2021/09/03 02:54:43;;;;;;;6.67;6.10;;;9.80;99.90;;;;;;6154626;23;20145;-62
2021/09/03 02:57:09;;;;;;;8.23;7.37;;;9.70;99.90;;;;;;6154754;23;20646;-62
2021/09/03 02:59:34;;;;;;;7.23;6.63;;;9.70;99.90;;;;;;6154044;23;20519;-62
2021/09/03 03:02:00;;;;;;;7.10;6.40;;;9.70;99.90;;;;;;6154873;23;20491;-62
2021/09/03 03:04:25;;;;;;;8.70;6.27;;;9.70;99.90;;;;;;6154817;23;20142;-61
2021/09/03 03:06:51;;;;;;;8.30;7.57;;;9.70;99.90;;;;;;6154794;23;20185;-63
2021/09/03 03:09:16;;;;;;;7.90;7.10;;;9.70;99.90;;;;;;6154216;23;20686;-61
2021/09/03 03:11:42;;;;;;;8.37;6.80;;;9.80;99.90;;;;;;6154679;23;20156;-62
2021/09/03 03:14:15;;;;;;;8.27;7.40;;;9.70;99.90;;;;;;6154580;23;20483;-62
2021/09/03 03:16:40;;;;;;;8.17;6.60;;;9.70;99.90;;;;;;6154676;23;20167;-61
2021/09/03 03:19:06;;;;;;;7.23;6.60;;;9.70;99.90;;;;;;6154172;23;20511;-61
2021/09/03 03:21:32;;;;;;;8.50;6.40;;;9.70;99.90;;;;;;6154541;23;20148;-63
2021/09/03 03:23:57;;;;;;;7.53;6.73;;;9.70;99.90;;;;;;6154622;23;20146;-64
2021/09/03 03:26:23;;;;;;;8.30;7.13;;;9.70;99.90;;;;;;6154395;23;20169;-62
2021/09/03 03:28:49;;;;;;;9.97;7.03;;;9.70;99.90;;;;;;6154195;23;20167;-61
2021/09/03 03:31:14;;;;;;;6.67;6.07;;;9.70;99.90;;;;;;6154520;23;20220;-61
2021/09/03 03:33:40;;;;;;;7.20;6.50;;;9.70;99.90;;;;;;6154521;23;20167;-63
2021/09/03 03:36:05;;;;;;;8.10;7.00;;;9.80;99.90;;;;;;6154332;23;20551;-62
2021/09/03 03:38:31;;;;;;;7.43;6.20;;;9.70;99.90;;;;;;6153967;23;20141;-61
2021/09/03 03:40:57;;;;;;;6.90;6.27;;;9.70;99.90;;;;;;6154354;23;20208;-62
2021/09/03 03:43:22;;;;;;;8.60;7.70;;;9.70;99.90;;;;;;6154041;23;20146;-64
2021/09/03 03:45:48;;;;;;;10.43;7.63;;;9.70;99.90;;;;;;6154345;23;20173;-61
2021/09/03 03:48:13;;;;;;;7.67;6.53;;;9.70;99.90;;;;;;6154039;23;20141;-62
2021/09/03 03:50:39;;;;;;;8.77;7.23;;;9.80;99.90;;;;;;6154437;23;20208;-62
2021/09/03 03:53:04;;;;;;;9.30;6.93;;;9.80;99.90;;;;;;6154170;23;20186;-64
2021/09/03 03:55:30;;;;;;;8.17;7.37;;;9.70;99.90;;;;;;6154248;23;20156;-60
2021/09/03 03:57:55;;;;;;;7.63;6.83;;;9.70;99.90;;;;;;6154119;23;20148;-63
2021/09/03 04:00:21;;;;;;;7.90;7.07;;;9.70;99.90;;;;;;6154090;23;20172;-62
2021/09/03 04:02:47;;;;;;;6.30;5.70;;;9.80;99.90;;;;;;6154185;23;20228;-63
2021/09/03 04:05:12;;;;;;;7.03;6.30;;;9.70;99.90;;;;;;6154329;23;20145;-62
2021/09/03 04:07:38;;;;;;;7.13;6.47;;;9.70;99.90;;;;;;6154112;23;20165;-62
2021/09/03 04:10:05;;;;;;;6.73;6.23;;;9.70;99.90;;;;;;6153853;23;20149;-64
2021/09/03 04:12:30;;;;;;;8.00;7.00;;;9.70;99.90;;;;;;6154300;23;20155;-62
2021/09/03 04:14:56;;;;;;;8.07;6.47;;;9.70;99.90;;;;;;6153961;23;20404;-61
2021/09/03 04:17:22;;;;;;;8.83;6.80;;;9.70;99.90;;;;;;6154130;23;20164;-63
2021/09/03 04:19:47;;;;;;;9.27;7.80;;;9.70;99.90;;;;;;6153717;23;20291;-61
2021/09/03 04:22:13;;;;;;;7.87;7.00;;;9.70;99.90;;;;;;6154206;23;20199;-62
2021/09/03 04:24:38;;;;;;;7.00;6.30;;;9.70;99.90;;;;;;6153960;23;20180;-62
2021/09/03 04:27:04;;;;;;;11.97;7.03;;;9.70;99.90;;;;;;6153951;23;20165;-64
2021/09/03 04:29:30;;;;;;;7.50;6.80;;;9.70;99.90;;;;;;6153842;23;20208;-61
2021/09/03 04:31:56;;;;;;;6.70;6.10;;;9.70;99.90;;;;;;6154241;23;20154;-61
2021/09/03 04:34:21;;;;;;;8.10;6.70;;;9.70;99.90;;;;;;6153911;23;20546;-62
2021/09/03 04:36:47;;;;;;;7.17;6.47;;;9.70;99.90;;;;;;6153960;23;20411;-60
2021/09/03 04:39:12;;;;;;;8.27;6.87;;;9.70;99.90;;;;;;6154321;23;20176;-63
2021/09/03 04:41:38;;;;;;;8.90;7.10;;;9.70;99.90;;;;;;6154073;23;20488;-63
2021/09/03 04:44:04;;;;;;;5.30;4.80;;;9.70;99.90;;;;;;6154588;23;20156;-63
2021/09/03 04:46:29;;;;;;;7.80;6.70;;;9.70;99.90;;;;;;6153958;23;20169;-63
2021/09/03 04:48:55;;;;;;;8.07;6.50;;;9.80;99.90;;;;;;6153797;23;20154;-63
2021/09/03 04:51:21;;;;;;;7.13;6.53;;;9.80;99.90;;;;;;6153935;23;20152;-63
2021/09/03 04:53:46;;;;;;;9.03;7.57;;;9.70;99.90;;;;;;6153917;23;20149;-64
2021/09/03 04:56:12;;;;;;;13.73;7.60;;;9.80;99.90;;;;;;6155339;23;20562;-63
2021/09/03 04:58:37;;;;;;;7.40;6.70;;;9.80;99.90;;;;;;6155573;23;20487;-63
2021/09/03 05:01:03;;;;;;;10.93;7.73;;;9.80;99.90;;;;;;6155894;23;20145;-63
2021/09/03 05:03:29;;;;;;;7.80;7.00;;;9.80;99.90;;;;;;6155908;23;20487;-63
2021/09/03 05:05:54;;;;;;;7.70;7.00;;;9.80;99.90;;;;;;6155900;23;20169;-64
2021/09/03 05:08:20;;;;;;;7.97;7.17;;;9.80;99.90;;;;;;6155398;23;20682;-63
2021/09/03 05:10:45;;;;;;;8.40;7.37;;;9.80;99.90;;;;;;6155840;23;20156;-63
2021/09/03 05:13:11;;;;;;;8.10;6.50;;;9.90;99.90;;;;;;6129708;23;20496;-63
2021/09/03 05:15:40;;;;;;;7.33;5.87;;;9.90;99.90;;;;;;6155858;23;20492;-63
2021/09/03 05:18:06;;;;;;;13.20;10.07;;;9.90;99.90;;;;;;6155503;23;20152;-63
2021/09/03 05:20:32;;;;;;;10.30;8.73;;;9.90;99.90;;;;;;6155705;23;20412;-63
2021/09/03 05:22:57;;;;;;;8.27;7.23;;;9.90;99.90;;;;;;6129516;23;20153;-63
2021/09/03 05:25:23;;;;;;;7.20;6.50;;;9.90;99.90;;;;;;6155825;23;20583;-63
2021/09/03 05:27:49;;;;;;;7.43;6.73;;;10.00;99.90;;;;;;6155392;23;20694;-63
2021/09/03 05:30:15;;;;;;;7.90;7.00;;;10.00;99.90;;;;;;6155330;23;20376;-63
2021/09/03 05:32:40;;;;;;;11.40;7.50;;;10.00;99.90;;;;;;6155659;23;20486;-63
2021/09/03 05:35:07;;;;;;;7.80;7.03;;;10.10;99.90;;;;;;6155590;23;20158;-63
2021/09/03 05:37:34;;;;;;;8.70;7.50;;;10.10;99.90;;;;;;6155506;23;20219;-63
2021/09/03 05:40:01;;;;;;;7.83;7.00;;;10.20;99.90;;;;;;6155178;23;20415;-63
2021/09/03 05:42:27;;;;;;;8.13;6.33;;;10.20;99.90;;;;;;6155703;23;20455;-63
2021/09/03 05:44:53;;;;;;;7.50;6.80;;;10.20;99.90;;;;;;6155455;23;20379;-63
2021/09/03 05:47:18;;;;;;;8.30;7.40;;;10.20;99.90;;;;;;6155534;23;20393;-63
2021/09/03 05:49:44;;;;;;;6.40;5.90;;;10.30;99.90;;;;;;6154981;23;20157;-63
2021/09/03 05:52:09;;;;;;;7.50;6.70;;;10.40;99.90;;;;;;6155519;23;20149;-64
2021/09/03 05:54:35;;;;;;;8.57;7.83;;;10.50;99.90;;;;;;6155343;23;20149;-63
2021/09/03 05:57:01;;;;;;;7.63;6.83;;;10.50;99.90;;;;;;6155389;23;20644;-63
2021/09/03 05:59:27;;;;;;;9.17;8.37;;;10.60;99.90;;;;;;6155028;23;20173;-63
2021/09/03 06:01:52;;;;;;;10.80;8.87;;;10.70;99.90;;;;;;6155383;23;20376;-63
2021/09/03 06:04:18;;;;;;;8.13;7.33;;;10.80;99.90;;;;;;6155323;23;20145;-63
2021/09/03 06:06:43;;;;;;;8.70;7.83;;;10.80;99.90;;;;;;6154579;23;20166;-63
2021/09/03 06:09:09;;;;;;;11.90;7.63;;;10.90;99.90;;;;;;6154959;23;20219;-63
2021/09/03 06:11:35;;;;;;;8.47;7.67;;;10.90;99.90;;;;;;6155255;23;20156;-63
2021/09/03 06:14:00;;;;;;;8.57;7.67;;;11.00;99.90;;;;;;6155289;23;20232;-63
2021/09/03 06:16:26;;;;;;;9.50;8.50;;;11.10;99.90;;;;;;6155167;23;20165;-63
2021/09/03 06:18:51;;;;;;;10.20;7.57;;;11.30;99.90;;;;;;6154754;23;20152;-63
2021/09/03 06:21:17;;;;;;;11.63;10.33;;;11.40;99.90;;;;;;6155116;23;20173;-63
2021/09/03 06:23:43;;;;;;;7.83;7.07;;;11.50;99.90;;;;;;6155208;23;20141;-63
2021/09/03 06:26:09;;;;;;;9.83;7.83;;;11.60;99.90;;;;;;6155064;23;20165;-63
2021/09/03 06:28:35;;;;;;;10.57;9.47;;;11.80;99.90;;;;;;6154641;23;20185;-63
2021/09/03 06:31:01;;;;;;;9.40;8.43;;;12.00;99.90;;;;;;6155233;23;20377;-63
2021/09/03 06:33:26;;;;;;;8.43;7.53;;;12.10;99.90;;;;;;6154914;23;20677;-63
2021/09/03 06:35:52;;;;;;;8.77;8.00;;;12.20;99.90;;;;;;6155031;23;20165;-63
2021/09/03 06:38:18;;;;;;;8.90;7.40;;;12.30;99.90;;;;;;6154683;23;20588;-63
2021/09/03 06:40:44;;;;;;;9.50;8.10;;;12.30;99.90;;;;;;6155068;23;20508;-64
2021/09/03 06:43:10;;;;;;;12.03;9.10;;;12.40;99.90;;;;;;6154855;23;20208;-63
2021/09/03 06:45:35;;;;;;;11.00;8.60;;;12.40;99.90;;;;;;6154949;23;20168;-63
2021/09/03 06:48:01;;;;;;;10.63;9.13;;;12.60;99.90;;;;;;6154567;23;20145;-63
2021/09/03 06:50:26;;;;;;;9.63;8.50;;;12.70;99.90;;;;;;6155253;23;20156;-64
2021/09/03 06:52:52;;;;;;;10.97;9.67;;;12.90;99.90;;;;;;6154849;23;20152;-63
2021/09/03 06:55:17;;;;;;;8.83;7.93;;;13.10;99.90;;;;;;6154812;23;20182;-63
2021/09/03 06:57:43;;;;;;;9.03;8.00;;;13.10;99.90;;;;;;6154901;23;20169;-63
2021/09/03 07:00:09;;;;;;;11.43;8.20;;;13.30;99.90;;;;;;6154369;23;20173;-64
2021/09/03 07:02:35;;;;;;;10.87;8.50;;;13.40;99.90;;;;;;6154830;23;20153;-63
2021/09/03 07:05:02;;;;;;;11.40;7.70;;;13.50;99.90;;;;;;6154656;23;20753;-63
2021/09/03 07:07:27;;;;;;;9.37;8.37;;;13.60;99.90;;;;;;6154789;23;20435;-64
2021/09/03 07:09:54;;;;;;;10.83;9.07;;;13.70;99.90;;;;;;6154396;23;20381;-63
2021/09/03 07:12:20;;;;;;;10.17;9.07;;;13.80;99.90;;;;;;6154890;23;20153;-64
2021/09/03 07:14:46;;;;;;;9.63;8.30;;;13.90;99.90;;;;;;6154632;23;20373;-63
2021/09/03 07:17:12;;;;;;;10.00;7.43;;;14.10;99.90;;;;;;6154555;23;20439;-64
2021/09/03 07:19:37;;;;;;;9.10;7.90;;;14.20;99.90;;;;;;6154226;23;20184;-64
2021/09/03 07:22:04;;;;;;;7.80;7.03;;;14.30;99.90;;;;;;6154620;23;20176;-63
2021/09/03 07:24:30;;;;;;;8.93;8.10;;;14.30;99.90;;;;;;6154669;23;20200;-64
2021/09/03 07:26:56;;;;;;;9.60;7.73;;;14.50;99.90;;;;;;6154475;23;20763;-63
2021/09/03 07:29:22;;;;;;;10.20;7.37;;;14.50;99.90;;;;;;6154221;23;20425;-64
2021/09/03 07:31:47;;;;;;;8.07;7.27;;;14.60;99.90;;;;;;6154439;23;20368;-63
2021/09/03 07:34:13;;;;;;;9.40;8.30;;;14.70;99.90;;;;;;6154422;23;20153;-64
2021/09/03 07:36:39;;;;;;;9.80;6.67;;;14.90;99.90;;;;;;6154321;23;20256;-64
2021/09/03 07:39:05;;;;;;;9.70;6.73;;;15.10;99.90;;;;;;6154123;23;20177;-63
2021/09/03 07:41:30;;;;;;;7.30;6.60;;;15.20;99.90;;;;;;6154475;23;20152;-63
2021/09/03 07:43:56;;;;;;;8.13;7.33;;;15.40;99.90;;;;;;6154349;23;20392;-63
2021/09/03 07:46:22;;;;;;;7.67;6.87;;;15.50;99.90;;;;;;6154385;23;20165;-64
2021/09/03 07:48:47;;;;;;;6.90;6.00;;;15.60;99.90;;;;;;6153970;23;20142;-64
2021/09/03 07:51:13;;;;;;;7.60;6.90;;;15.80;99.90;;;;;;6154403;23;20142;-64
2021/09/03 07:53:39;;;;;;;7.80;7.10;;;15.90;99.90;;;;;;6154294;23;20142;-64
2021/09/03 07:56:05;;;;;;;11.17;7.00;;;16.00;99.90;;;;;;6154356;23;20697;-64
2021/09/03 07:58:30;;;;;;;6.83;6.13;;;16.20;99.90;;;;;;6153934;23;20142;-64
2021/09/03 08:00:56;;;;;;;6.37;5.70;;;16.30;99.90;;;;;;6154147;23;20169;-64
2021/09/03 08:03:22;;;;;;;9.93;6.40;;;16.50;99.90;;;;;;6154177;23;20580;-64
2021/09/03 08:05:47;;;;;;;8.23;6.57;;;16.70;99.90;;;;;;6154221;23;20162;-63
2021/09/03 08:08:13;;;;;;;7.07;6.40;;;16.80;99.90;;;;;;6153933;23;20520;-64
2021/09/03 08:10:39;;;;;;;7.90;7.20;;;16.90;99.90;;;;;;6154238;23;20228;-64
2021/09/03 08:13:09;;;;;;;9.17;6.30;;;17.10;99.90;;;;;;6154252;23;20235;-64
2021/09/03 08:15:35;;;;;;;6.27;5.57;;;17.20;99.90;;;;;;6154215;23;20447;-64
2021/09/03 08:18:01;;;;;;;6.77;6.17;;;17.50;99.90;;;;;;6153897;23;20380;-64
2021/09/03 08:20:28;;;;;;;7.53;6.23;;;17.60;99.90;;;;;;6153999;23;20412;-64
2021/09/03 08:22:53;;;;;;;7.63;6.93;;;17.80;99.90;;;;;;6154468;23;20400;-64
2021/09/03 08:25:20;;;;;;;7.30;6.60;;;18.10;99.90;;;;;;6154146;23;20372;-64
2021/09/03 08:27:46;;;;;;;6.33;5.80;;;18.30;99.90;;;;;;6153942;23;20208;-64
2021/09/03 08:30:12;;;;;;;10.67;6.13;;;18.40;99.90;;;;;;6155121;23;20384;-64
2021/09/03 08:32:38;;;;;;;6.67;6.07;;;18.60;99.90;;;;;;6157399;23;20376;-64
2021/09/03 08:35:04;;;;;;;5.47;5.07;;;18.80;99.90;;;;;;6157530;23;20387;-64
2021/09/03 08:37:30;;;;;;;6.77;6.07;;;19.00;99.90;;;;;;6157169;23;20169;-64
2021/09/03 08:39:56;;;;;;;6.30;5.70;;;19.20;99.90;;;;;;6156967;23;20507;-64
2021/09/03 08:42:21;;;;;;;5.70;5.10;;;19.30;99.90;;;;;;6157337;23;20148;-64
2021/09/03 08:44:50;;;;;;;5.87;5.27;;;19.60;99.90;;;;;;6157319;23;20365;-64
2021/09/03 08:47:17;;;;;;;7.37;5.77;;;19.60;98.70;;;;;;6157378;23;20165;-64
2021/09/03 08:49:43;;;;;;;6.73;5.53;;;19.60;98.10;;;;;;6156990;23;20439;-64
2021/09/03 08:52:09;;;;;;;9.80;5.97;;;19.80;97.80;;;;;;6157358;23;20373;-64
2021/09/03 08:54:37;;;;;;;6.53;5.90;;;19.80;97.50;;;;;;6158258;23;20224;-63
2021/09/03 08:57:03;;;;;;;6.80;6.10;;;20.10;97.70;;;;;;6157128;23;20411;-63
2021/09/03 08:59:29;;;;;;;6.43;5.80;;;20.40;98.40;;;;;;6156936;23;20416;-63
2021/09/03 09:02:12;;;;;;;8.63;5.67;;;20.60;98.00;;;;;;6157246;23;20377;-64
2021/09/03 09:04:46;;;;;;;5.70;5.20;;;20.80;96.90;;;;;;6157295;23;20129;-64
2021/09/03 09:07:12;;;;;;;6.70;6.00;;;20.80;94.80;;;;;;6157669;23;20711;-63
2021/09/03 09:09:47;;;;;;;5.93;5.43;;;20.90;94.80;;;;;;6156870;23;20368;-63
2021/09/03 09:12:17;;;;;;;5.80;5.40;;;21.00;95.20;;;;;;6157491;23;20145;-64
2021/09/03 09:15:09;;;;;;;7.07;5.77;;;21.30;95.30;;;;;;6157121;23;20380;-64
2021/09/03 09:17:40;;;;;;;5.80;5.23;;;21.40;94.20;;;;;;6157217;23;20875;-64
2021/09/03 09:20:14;;;;;;;5.97;5.40;;;21.60;94.00;;;;;;6156735;23;20746;-63
2021/09/03 09:23:02;;;;;;;5.37;4.90;;;21.80;93.50;;;;;;6157180;23;20403;-63
2021/09/03 09:25:30;;;;;;;5.80;4.80;;;22.00;94.20;;;;;;6157120;23;20373;-63
2021/09/03 09:28:19;;;;;;;8.63;6.13;;;22.10;93.90;;;;;;6156875;23;20474;-63
2021/09/03 09:30:45;;;;;;;6.33;5.63;;;22.20;93.30;;;;;;6157123;23;20861;-63
2021/09/03 09:33:21;;;;;;;5.17;4.67;;;22.60;93.10;;;;;;6157063;23;20393;-65
2021/09/03 09:35:49;;;;;;;7.17;5.67;;;22.50;92.70;;;;;;6157117;23;20459;-63
2021/09/03 09:38:17;;;;;;;6.60;5.93;;;22.80;93.20;;;;;;6156930;23;20392;-63
2021/09/03 09:40:52;;;;;;;5.87;4.63;;;23.20;92.70;;;;;;6156894;23;20723;-63
2021/09/03 09:43:28;;;;;;;6.00;5.27;;;23.20;91.90;;;;;;6155547;23;20385;-64
2021/09/03 09:46:24;;;;;;;5.60;5.10;;;23.50;92.40;;;;;;6129606;23;20917;-63
2021/09/03 09:48:53;;;;;;;5.73;5.23;;;23.70;92.70;;;;;;6125308;23;20384;-64
2021/09/03 09:51:26;;;;;;;5.87;5.37;;;23.50;90.80;;;;;;6155456;23;20391;-63
2021/09/03 09:54:14;;;;;;;7.70;6.67;;;23.80;92.40;;;;;;6155431;23;20369;-66
2021/09/03 09:56:46;;;;;;;5.30;4.80;;;24.20;90.90;;;;;;6155396;23;20392;-65
2021/09/03 09:59:12;;;;;;;4.63;4.33;;;24.30;90.10;;;;;;6155131;23;20401;-64
2021/09/03 10:01:40;;;;;;;5.50;5.00;;;24.20;87.60;;;;;;6155317;23;20849;-64
2021/09/03 10:04:10;;;;;;;5.60;5.20;;;24.00;87.00;;;;;;6155437;23;20595;-64
2021/09/03 10:06:37;;;;;;;5.67;5.17;;;24.30;89.00;;;;;;6155306;23;20419;-64
2021/09/03 10:09:07;;;;;;;5.27;4.80;;;24.60;88.90;;;;;;6155037;23;20364;-64
2021/09/03 10:11:34;;;;;;;5.57;4.73;;;24.80;85.40;;;;;;6155235;23;20352;-65
2021/09/03 10:14:00;;;;;;;6.00;5.40;;;25.00;85.90;;;;;;6155240;23;20373;-64
2021/09/03 10:16:25;;;;;;;4.13;3.80;;;25.10;85.10;;;;;;6129047;23;20483;-64
2021/09/03 10:18:55;;;;;;;5.37;4.87;;;25.60;87.40;;;;;;6154786;23;20146;-65
2021/09/03 10:21:22;;;;;;;5.40;4.90;;;26.00;86.10;;;;;;6155339;23;20149;-64
2021/09/03 10:23:53;;;;;;;5.17;4.70;;;25.80;83.20;;;;;;6128919;23;20376;-64
2021/09/03 10:26:29;;;;;;;6.50;5.90;;;25.70;82.30;;;;;;6155156;23;20389;-64
2021/09/03 10:29:31;;;;;;;5.93;4.90;;;25.60;79.40;;;;;;6154691;23;20403;-64
2021/09/03 10:32:06;;;;;;;7.50;5.67;;;25.50;76.90;;;;;;6078851;23;20431;-64
2021/09/03 10:34:42;;;;;;;5.40;4.90;;;25.50;75.60;;;;;;6154959;23;20456;-64
2021/09/03 10:37:19;;;;;;;7.53;5.03;;;25.80;80.10;;;;;;6154981;23;20380;-66
2021/09/03 10:39:51;;;;;;;5.37;4.87;;;26.20;78.90;;;;;;6155192;23;20445;-65
2021/09/03 10:42:43;;;;;;;5.13;4.73;;;26.40;73.20;;;;;;6155096;23;20448;-65
2021/09/03 10:45:17;;;;;;;5.30;4.80;;;26.60;78.20;;;;;;6128819;23;20395;-65
2021/09/03 10:47:47;;;;;;;6.60;5.43;;;26.80;75.60;;;;;;6154967;23;20411;-65
2021/09/03 10:50:30;;;;;;;7.83;4.90;;;26.90;71.90;;;;;;6154556;23;20697;-65
2021/09/03 10:53:05;;;;;;;4.93;4.53;;;27.00;75.00;;;;;;6128609;23;20381;-65
2021/09/03 10:55:58;;;;;;;5.63;5.13;;;26.90;72.70;;;;;;6128646;23;20931;-65
2021/09/03 10:58:36;;;;;;;5.53;5.00;;;27.20;70.80;;;;;;6154644;23;20372;-65
2021/09/03 11:01:11;;;;;;;6.03;5.43;;;27.50;73.40;;;;;;6154738;23;20408;-65
2021/09/03 11:03:45;;;;;;;5.33;4.90;;;27.80;76.70;;;;;;6154861;23;20369;-65
2021/09/03 11:06:23;;;;;;;5.77;5.20;;;27.90;78.20;;;;;;6154606;23;20389;-66
2021/09/03 11:08:49;;;;;;;5.13;4.63;;;28.20;74.90;;;;;;6154507;23;20850;-66
2021/09/03 11:11:28;;;;;;;7.13;4.70;;;28.60;68.20;;;;;;6154780;23;20369;-65
2021/09/03 11:14:18;;;;;;;6.43;5.83;;;28.80;70.50;;;;;;6154684;23;20854;-65
2021/09/03 11:16:57;;;;;;;6.27;5.67;;;29.00;70.30;;;;;;6153275;23;20938;-65
2021/09/03 11:19:30;;;;;;;5.67;5.17;;;29.30;70.20;;;;;;6154400;23;20400;-65
2021/09/03 11:21:56;;;;;;;6.13;5.63;;;29.30;68.10;;;;;;6154684;23;20433;-66
2021/09/03 11:24:34;;;;;;;6.23;5.67;;;29.40;66.70;;;;;;6154611;23;20396;-66
2021/09/03 11:27:05;;;;;;;5.47;5.07;;;29.90;70.40;;;;;;6154434;23;20165;-66
2021/09/03 11:29:43;;;;;;;5.57;5.17;;;29.80;63.40;;;;;;6128278;23;20489;-66
2021/09/03 11:32:12;;;;;;;6.10;5.60;;;29.90;66.80;;;;;;6154960;23;20349;-65
2021/09/03 11:35:00;;;;;;;6.00;5.40;;;29.80;64.40;;;;;;6154592;23;20516;-66
2021/09/03 11:37:27;;;;;;;5.43;5.03;;;30.10;65.80;;;;;;6154417;23;20759;-66
2021/09/03 11:39:57;;;;;;;5.50;5.00;;;30.20;61.40;;;;;;6154075;23;20412;-66
2021/09/03 11:42:28;;;;;;;6.13;5.63;;;30.30;69.00;;;;;;6154574;23;20365;-66
2021/09/03 11:45:01;;;;;;;5.73;5.27;;;30.70;66.30;;;;;;6154375;23;20365;-66
2021/09/03 11:47:32;;;;;;;6.27;5.70;;;30.90;68.20;;;;;;6154478;23;20451;-66
2021/09/03 11:49:59;;;;;;;6.00;5.50;;;31.10;63.30;;;;;;6154006;23;20354;-66
2021/09/03 11:52:27;;;;;;;6.37;5.57;;;31.00;58.90;;;;;;6154479;23;20373;-66
2021/09/03 11:54:54;;;;;;;5.20;4.80;;;31.40;63.70;;;;;;6154214;23;20388;-66
2021/09/03 11:57:21;;;;;;;4.77;4.37;;;31.60;61.70;;;;;;6154441;23;20404;-66
2021/09/03 11:59:52;;;;;;;7.17;6.40;;;32.20;70.30;;;;;;6153852;23;20805;-66
2021/09/03 12:02:19;;;;;;;5.40;4.90;;;32.20;64.40;;;;;;6154432;23;20428;-66
2021/09/03 12:04:45;;;;;;;5.87;5.37;;;32.10;59.10;;;;;;6153769;23;20838;-66
2021/09/03 12:07:18;;;;;;;5.90;5.43;;;31.60;59.00;;;;;;6154337;23;20508;-66
2021/09/03 12:09:44;;;;;;;5.60;5.10;;;31.60;63.40;;;;;;6153918;23;20619;-66
2021/09/03 12:12:10;;;;;;;5.20;4.73;;;31.50;58.70;;;;;;6154356;23;20364;-66
2021/09/03 12:14:36;;;;;;;5.43;4.93;;;32.00;68.40;;;;;;6154177;23;20369;-66
2021/09/03 12:17:02;;;;;;;6.10;5.60;;;32.20;63.40;;;;;;6154231;23;20172;-66
2021/09/03 12:19:28;;;;;;;6.80;6.20;;;32.10;60.20;;;;;;6127726;23;20416;-66
2021/09/03 12:21:54;;;;;;;5.50;5.10;;;32.30;61.60;;;;;;6154158;23;20369;-66
2021/09/03 12:24:22;;;;;;;5.40;5.00;;;32.40;59.60;;;;;;6154199;23;20146;-66
2021/09/03 12:26:56;;;;;;;5.80;5.30;;;32.50;62.20;;;;;;6154052;23;20165;-66
2021/09/03 12:29:29;;;;;;;6.20;5.17;;;32.10;59.40;;;;;;6153814;23;20447;-66
2021/09/03 12:32:00;;;;;;;5.37;4.97;;;32.70;59.00;;;;;;6154197;23;20393;-66
2021/09/03 12:34:28;;;;;;;6.20;5.70;;;32.20;57.10;;;;;;6154183;23;20376;-66
2021/09/03 12:37:05;;;;;;;6.60;5.60;;;32.30;56.70;;;;;;6154071;23;20734;-66
2021/09/03 12:39:32;;;;;;;5.90;5.40;;;32.40;57.90;;;;;;6153798;23;20401;-66
2021/09/03 12:42:03;;;;;;;6.67;6.10;;;32.70;59.00;;;;;;6154056;23;20704;-66
2021/09/03 12:44:30;;;;;;;6.60;6.00;;;33.00;57.00;;;;;;6154240;23;20695;-66
2021/09/03 12:47:00;;;;;;;5.60;5.10;;;32.90;59.30;;;;;;6154119;23;20424;-66
2021/09/03 12:49:35;;;;;;;5.40;5.00;;;33.00;55.40;;;;;;6153877;23;20384;-66
2021/09/03 12:52:07;;;;;;;5.80;5.27;;;33.30;57.80;;;;;;6128074;23;20372;-66